Hlavní strana
METAR-TAF:

METAR-TAF

Letiště :

Jendouba, Tunisko

zeměpisná šířka: 36-29N, zeměpisná délka: 008-48E, výška: 143 m

Aktuální stav počasí

Zpráva byla vytvořena před 41 minutami, v 14:00 UTC
Východoseverovýchodní vítr 6 kt, proměnlivý mezi severovýchodním a východojihovýchodním
Teplota 15°C
Vlhkost vzduchu 63%
Tlak 1016 hPa
Viditelnost 10 km a více
Skoro jasno ve výšce 2000 ft

METAR: DTTN 191400Z 07006KT 040V110 9999 FEW020 15/08 Q1016

Čas: 15:41 (14:41 UTC)


TAF: chybějící

Stav a předpovědi počasí z více než 4 000 letišť (zprávy METAR a TAF).

Červené a žluté tečky na mapě představují dostupné meteorologické stanice.

Když kurzor umístíte na tečku, zobrazí se název stanice.

Pak kliknutím zobrazíte stav a předpověď počasí.

Chcete-li změnit mapu, kliknutím na zelené tlačítko se znaménkem +mapu přiblížíte, kliknutím na zelené tlačítko se znaménkem – mapu oddálíte a kliknutím na zelené šipky přejdete na sousední mapy.


METAR-TAF: